Time;durP1;ratioP1;P1;durP2;ratioP2;P2;SDS_P1;SDS_P2;PMS_P1;PMS_P2;Temp;Humidity;BMP_temperature;BMP_pressure;BME280_temperature;BME280_humidity;BME280_pressure;Samples;Min_cycle;Max_cycle;Signal;HPM_P1;HPM_P2
2023/04/16 00:01:21;;;;;;;;;;;;;;;17.11;nan;101541.69;4945928;28;19923;-87
2023/04/16 00:03:47;;;;;;;;;;;;;;;17.08;nan;101547.66;4943904;28;19926;-87
2023/04/16 00:06:12;;;;;;;;;;;;;;;17.07;nan;101548.72;4946901;28;20385;-88
2023/04/16 00:08:38;;;;;;;;;;;;;;;17.09;nan;101557.38;4946688;28;21113;-86
2023/04/16 00:11:04;;;;;;;;;;;;;;;17.10;nan;101550.06;4948248;28;19922;-87
2023/04/16 00:13:29;;;;;;;;;;;;;;;17.09;nan;101548.47;4942885;28;19923;-87
2023/04/16 00:15:55;;;;;;;;;;;;;;;17.10;nan;101553.59;4943758;28;20510;-87
2023/04/16 00:18:20;;;;;;;;;;;;;;;17.09;nan;101562.81;4946316;28;19926;-88
2023/04/16 00:20:46;;;;;;;;;;;;;;;17.07;nan;101559.56;4961611;28;20081;-87
2023/04/16 00:23:13;;;;;;;;;;;;;;;17.08;nan;101560.38;4944069;28;19950;-86
2023/04/16 00:25:38;;;;;;;;;;;;;;;17.07;nan;101556.03;4956994;28;19937;-87
2023/04/16 00:28:04;;;;;;;;;;;;;;;17.05;nan;101553.56;4944782;28;19918;-85
2023/04/16 00:30:29;;;;;;;;;;;;;;;17.05;nan;101553.56;4945383;28;20153;-87
2023/04/16 00:32:55;;;;;;;;;;;;;;;17.03;nan;101558.47;4944884;28;20946;-87
2023/04/16 00:35:20;;;;;;;;;;;;;;;17.02;nan;101558.72;4943202;28;19918;-87
2023/04/16 00:37:46;;;;;;;;;;;;;;;17.01;nan;101562.53;4942793;28;19927;-87
2023/04/16 00:40:11;;;;;;;;;;;;;;;16.99;nan;101562.78;4944833;28;19923;-87
2023/04/16 00:42:37;;;;;;;;;;;;;;;17.00;nan;101560.91;4945610;28;20361;-87
2023/04/16 00:45:03;;;;;;;;;;;;;;;16.99;nan;101554.66;4945683;28;19922;-88
2023/04/16 00:47:29;;;;;;;;;;;;;;;16.99;nan;101567.41;4943309;28;19926;-87
2023/04/16 00:49:57;;;;;;;;;;;;;;;16.99;nan;101560.09;4944377;28;19922;-88
2023/04/16 00:52:23;;;;;;;;;;;;;;;16.98;nan;101561.16;4941137;28;19922;-88
2023/04/16 00:54:48;;;;;;;;;;;;;;;16.99;nan;101556.56;4944850;28;19932;-87
2023/04/16 00:57:14;;;;;;;;;;;;;;;16.99;nan;101562.78;4945283;28;19984;-87
2023/04/16 00:59:40;;;;;;;;;;;;;;;17.00;nan;101561.72;4945083;28;19973;-88
2023/04/16 01:02:05;;;;;;;;;;;;;;;17.00;nan;101561.72;4945338;28;19922;-87
2023/04/16 01:04:32;;;;;;;;;;;;;;;17.00;nan;101560.91;4944219;28;20317;-88
2023/04/16 01:06:58;;;;;;;;;;;;;;;16.98;nan;101557.66;4943507;28;19919;-88
2023/04/16 01:09:23;;;;;;;;;;;;;;;16.95;nan;101563.63;4945823;28;19933;-87
2023/04/16 01:11:48;;;;;;;;;;;;;;;16.93;nan;101563.88;4946420;28;19922;-87
2023/04/16 01:14:14;;;;;;;;;;;;;;;16.92;nan;101576.59;4959783;28;20131;-87
2023/04/16 01:16:39;;;;;;;;;;;;;;;16.92;nan;101570.38;4943600;28;19941;-88
2023/04/16 01:19:05;;;;;;;;;;;;;;;16.91;nan;101571.47;4945507;28;19926;-87
2023/04/16 01:21:30;;;;;;;;;;;;;;;16.91;nan;101577.69;4946283;28;19933;-87
2023/04/16 01:23:55;;;;;;;;;;;;;;;16.93;nan;101574.72;4947111;28;19953;-87
2023/04/16 01:26:21;;;;;;;;;;;;;;;16.93;nan;101572.00;4946432;28;19929;-87
2023/04/16 01:28:46;;;;;;;;;;;;;;;16.90;nan;101572.56;4943476;28;20369;-87
2023/04/16 01:31:11;;;;;;;;;;;;;;;16.89;nan;101581.75;4948476;28;19941;-88
2023/04/16 01:33:37;;;;;;;;;;;;;;;16.88;nan;101574.72;4945578;28;19926;-88
2023/04/16 01:36:02;;;;;;;;;;;;;;;16.87;nan;101575.78;4948519;28;20394;-87
2023/04/16 01:38:27;;;;;;;;;;;;;;;16.88;nan;101574.72;4946083;28;19952;-88
2023/04/16 01:40:56;;;;;;;;;;;;;;;16.89;nan;101576.34;4959790;28;20051;-87
2023/04/16 01:43:22;;;;;;;;;;;;;;;16.91;nan;101575.00;4944045;28;19918;-87
2023/04/16 01:45:48;;;;;;;;;;;;;;;16.90;nan;101578.78;4947587;28;20054;-87
2023/04/16 01:48:13;;;;;;;;;;;;;;;16.91;nan;101574.19;4946752;28;20400;-88
2023/04/16 01:50:38;;;;;;;;;;;;;;;16.92;nan;101581.22;4943311;28;20385;-86
2023/04/16 01:53:04;;;;;;;;;;;;;;;16.89;nan;101576.34;4943718;28;19919;-87
2023/04/16 01:55:31;;;;;;;;;;;;;;;16.90;nan;101583.38;4944772;28;19961;-87
2023/04/16 01:57:56;;;;;;;;;;;;;;;16.89;nan;101573.63;4945825;28;19927;-88
2023/04/16 02:00:21;;;;;;;;;;;;;;;16.89;nan;101577.16;4941672;28;19922;-87
2023/04/16 02:02:48;;;;;;;;;;;;;;;16.89;nan;101571.75;4941446;28;19962;-88
2023/04/16 02:05:15;;;;;;;;;;;;;;;16.91;nan;101574.19;4960173;28;19919;-88
2023/04/16 02:07:41;;;;;;;;;;;;;;;16.91;nan;101574.19;4944683;28;19923;-86
2023/04/16 02:10:07;;;;;;;;;;;;;;;16.93;nan;101577.41;4945156;28;20304;-87
2023/04/16 02:12:33;;;;;;;;;;;;;;;16.93;nan;101582.84;4943020;28;19925;-88
2023/04/16 02:14:59;;;;;;;;;;;;;;;16.93;nan;101588.25;4943879;28;19922;-86
2023/04/16 02:17:24;;;;;;;;;;;;;;;16.90;nan;101578.78;4959971;28;19926;-88
2023/04/16 02:19:49;;;;;;;;;;;;;;;16.91;nan;101580.41;4944918;29;19918;-87
2023/04/16 02:22:15;;;;;;;;;;;;;;;16.93;nan;101588.25;4944197;28;19918;-87
2023/04/16 02:24:40;;;;;;;;;;;;;;;16.93;nan;101593.66;4941435;28;19926;-87
2023/04/16 02:27:06;;;;;;;;;;;;;;;16.94;nan;101589.88;4944293;28;20070;-87
2023/04/16 02:29:31;;;;;;;;;;;;;;;16.92;nan;101587.44;4945134;28;20001;-87
2023/04/16 02:31:58;;;;;;;;;;;;;;;16.91;nan;101590.41;4944409;28;19926;-87
2023/04/16 02:34:24;;;;;;;;;;;;;;;16.93;nan;101599.06;4945282;28;20141;-87
2023/04/16 02:36:49;;;;;;;;;;;;;;;16.94;nan;101595.28;4942180;28;19923;-87
2023/04/16 02:39:15;;;;;;;;;;;;;;;16.95;nan;101602.31;4937249;28;20017;-87
2023/04/16 02:41:40;;;;;;;;;;;;;;;16.97;nan;101599.34;4940926;28;19919;-88
2023/04/16 02:44:05;;;;;;;;;;;;;;;16.94;nan;101600.69;4947660;28;20005;-87
2023/04/16 02:46:31;;;;;;;;;;;;;;;16.94;nan;101599.88;4949964;28;19919;-88
2023/04/16 02:48:56;;;;;;;;;;;;;;;16.95;nan;101602.31;4945914;29;20384;-87
2023/04/16 02:51:21;;;;;;;;;;;;;;;16.94;nan;101605.31;4945209;28;19919;-87
2023/04/16 02:53:47;;;;;;;;;;;;;;;16.92;nan;101605.56;4947358;28;19926;-86
2023/04/16 02:56:12;;;;;;;;;;;;;;;16.92;nan;101605.56;4964816;28;19919;-86
2023/04/16 02:58:37;;;;;;;;;;;;;;;16.93;nan;101607.19;4950355;29;19930;-86
2023/04/16 03:01:03;;;;;;;;;;;;;;;16.91;nan;101612.06;4948388;28;19922;-87
2023/04/16 03:03:28;;;;;;;;;;;;;;;16.89;nan;101609.63;4943753;28;20004;-87
2023/04/16 03:05:54;;;;;;;;;;;;;;;16.89;nan;101604.22;4946497;28;20311;-87
2023/04/16 03:08:19;;;;;;;;;;;;;;;16.88;nan;101610.72;4947621;28;19918;-87
2023/04/16 03:10:45;;;;;;;;;;;;;;;16.88;nan;101612.63;4947992;28;20288;-88
2023/04/16 03:13:13;;;;;;;;;;;;;;;16.88;nan;101607.19;4958064;28;20308;-87
2023/04/16 03:15:38;;;;;;;;;;;;;;;16.88;nan;101612.63;4947551;28;19926;-87
2023/04/16 03:18:04;;;;;;;;;;;;;;;16.89;nan;101616.94;4946826;28;19930;-87
2023/04/16 03:20:29;;;;;;;;;;;;;;;16.89;nan;101614.25;4947936;28;19922;-86
2023/04/16 03:22:56;;;;;;;;;;;;;;;16.87;nan;101622.59;4948203;28;20013;-86
2023/04/16 03:25:21;;;;;;;;;;;;;;;16.88;nan;101616.13;4944359;28;19934;-86
2023/04/16 03:27:47;;;;;;;;;;;;;;;16.89;nan;101619.66;4948201;28;20360;-87
2023/04/16 03:30:16;;;;;;;;;;;;;;;16.91;nan;101612.88;4964199;28;19920;-87
2023/04/16 03:32:41;;;;;;;;;;;;;;;16.90;nan;101618.56;4949522;28;19922;-87
2023/04/16 03:35:07;;;;;;;;;;;;;;;16.87;nan;101610.97;4943727;28;19973;-88
2023/04/16 03:37:33;;;;;;;;;;;;;;;16.87;nan;101610.97;4946334;28;19922;-87
2023/04/16 03:39:58;;;;;;;;;;;;;;;16.86;nan;101622.88;4948653;28;19943;-86
2023/04/16 03:42:24;;;;;;;;;;;;;;;16.86;nan;101626.38;4962750;28;20158;-86
2023/04/16 03:44:59;;;;;;;;;;;;;;;16.87;nan;101619.09;4948000;28;19918;-87
2023/04/16 03:47:33;;;;;;;;;;;;;;;16.85;nan;101613.94;4946709;28;19918;-86
2023/04/16 03:50:05;;;;;;;;;;;;;;;16.85;nan;101613.94;4961595;28;19918;-87
2023/04/16 03:52:30;;;;;;;;;;;;;;;16.83;nan;101631.53;4947140;28;19922;-87
2023/04/16 03:54:58;;;;;;;;;;;;;;;16.83;nan;101636.94;4944710;28;20074;-86
2023/04/16 03:57:25;;;;;;;;;;;;;;;16.81;nan;101633.69;4958405;28;19937;-87
2023/04/16 04:00:03;;;;;;;;;;;;;;;16.78;nan;101640.47;4947142;28;20041;-86
2023/04/16 04:02:34;;;;;;;;;;;;;;;16.80;nan;101637.47;4946954;28;19925;-86
2023/04/16 04:05:00;;;;;;;;;;;;;;;16.82;nan;101636.13;4943991;28;20021;-87
2023/04/16 04:07:29;;;;;;;;;;;;;;;16.84;nan;101635.88;4946301;28;19929;-86
2023/04/16 04:10:03;;;;;;;;;;;;;;;16.85;nan;101640.19;4945391;28;19922;-86
2023/04/16 04:12:52;;;;;;;;;;;;;;;16.86;nan;101641.81;4944968;28;19922;-87
2023/04/16 04:15:18;;;;;;;;;;;;;;;16.85;nan;101651.84;4946266;28;19926;-88
2023/04/16 04:17:43;;;;;;;;;;;;;;;16.83;nan;101648.59;4946834;28;19926;-86
2023/04/16 04:20:09;;;;;;;;;;;;;;;16.81;nan;101655.34;4941495;28;19929;-87
2023/04/16 04:22:34;;;;;;;;;;;;;;;16.83;nan;101647.78;4944668;28;19945;-87
2023/04/16 04:25:00;;;;;;;;;;;;;;;16.83;nan;101653.19;4944829;28;19926;-88
2023/04/16 04:27:26;;;;;;;;;;;;;;;16.85;nan;101659.13;4961549;28;19919;-87
2023/04/16 04:29:51;;;;;;;;;;;;;;;16.85;nan;101661.84;4946957;28;19919;-86
2023/04/16 04:32:16;;;;;;;;;;;;;;;16.85;nan;101661.84;4947459;28;19962;-87
2023/04/16 04:34:41;;;;;;;;;;;;;;;16.85;nan;101661.84;4944971;28;20400;-86
2023/04/16 04:37:07;;;;;;;;;;;;;;;16.86;nan;101668.88;4946788;28;19929;-88
2023/04/16 04:39:32;;;;;;;;;;;;;;;16.85;nan;101672.66;4946099;28;20064;-87
2023/04/16 04:41:58;;;;;;;;;;;;;;;16.84;nan;101673.75;4947847;28;19992;-87
2023/04/16 04:44:23;;;;;;;;;;;;;;;16.82;nan;101673.22;4942579;28;20101;-86
2023/04/16 04:46:48;;;;;;;;;;;;;;;16.82;nan;101673.22;4946691;28;19923;-87
2023/04/16 04:49:14;;;;;;;;;;;;;;;16.82;nan;101668.63;4945884;28;19918;-86
2023/04/16 04:51:40;;;;;;;;;;;;;;;16.82;nan;101684.03;4942996;28;19929;-87
2023/04/16 04:54:05;;;;;;;;;;;;;;;16.83;nan;101680.25;4944435;28;20609;-86
2023/04/16 04:56:30;;;;;;;;;;;;;;;16.83;nan;101678.34;4947396;28;19919;-87
2023/04/16 04:58:56;;;;;;;;;;;;;;;16.83;nan;101682.97;4945166;28;19994;-87
2023/04/16 05:01:21;;;;;;;;;;;;;;;16.82;nan;101682.13;4945379;28;20477;-86
2023/04/16 05:03:46;;;;;;;;;;;;;;;16.82;nan;101678.63;4940216;28;19926;-87
2023/04/16 05:06:12;;;;;;;;;;;;;;;16.80;nan;101678.09;4943962;28;19972;-86
2023/04/16 05:08:53;;;;;;;;;;;;;;;16.80;nan;101681.59;4945021;28;19926;-86
2023/04/16 05:11:21;;;;;;;;;;;;;;;16.82;nan;101689.44;4942004;28;19945;-88
2023/04/16 05:13:56;;;;;;;;;;;;;;;16.83;nan;101685.66;4942497;28;19926;-87
2023/04/16 05:16:21;;;;;;;;;;;;;;;16.82;nan;101689.44;4942883;28;19977;-86
2023/04/16 05:18:47;;;;;;;;;;;;;;;16.84;nan;101688.09;4942674;28;19926;-87
2023/04/16 05:21:12;;;;;;;;;;;;;;;16.86;nan;101691.34;4961899;28;20482;-88
2023/04/16 05:23:37;;;;;;;;;;;;;;;16.85;nan;101689.72;4960139;28;19933;-87
2023/04/16 05:26:03;;;;;;;;;;;;;;;16.85;nan;101699.75;4947082;28;20430;-86
2023/04/16 05:28:31;;;;;;;;;;;;;;;16.86;nan;101696.75;4944540;28;20409;-86
2023/04/16 05:30:56;;;;;;;;;;;;;;;16.87;nan;101703.00;4943957;28;19922;-88
2023/04/16 05:33:22;;;;;;;;;;;;;;;16.87;nan;101701.09;4946795;29;20119;-86
2023/04/16 05:35:47;;;;;;;;;;;;;;;16.89;nan;101707.09;4945495;28;19981;-87
2023/04/16 05:38:12;;;;;;;;;;;;;;;16.89;nan;101706.28;4944877;28;19938;-86
2023/04/16 05:40:38;;;;;;;;;;;;;;;16.88;nan;101707.34;4943623;28;20368;-86
2023/04/16 05:43:03;;;;;;;;;;;;;;;16.87;nan;101709.22;4942350;28;20392;-86
2023/04/16 05:45:30;;;;;;;;;;;;;;;16.88;nan;101716.28;4940951;28;20395;-87
2023/04/16 05:47:55;;;;;;;;;;;;;;;16.89;nan;101712.50;4945618;28;20403;-86
2023/04/16 05:50:20;;;;;;;;;;;;;;;16.91;nan;101720.34;4943224;28;19922;-88
2023/04/16 05:52:46;;;;;;;;;;;;;;;16.92;nan;101720.06;4942655;28;19926;-86
2023/04/16 05:55:11;;;;;;;;;;;;;;;16.91;nan;101723.88;4941461;28;19933;-87
2023/04/16 05:57:36;;;;;;;;;;;;;;;16.91;nan;101720.34;4939774;28;20178;-86
2023/04/16 06:00:02;;;;;;;;;;;;;;;16.94;nan;101727.94;4943033;28;20013;-86
2023/04/16 06:02:29;;;;;;;;;;;;;;;16.94;nan;101741.47;4943581;28;19969;-87
2023/04/16 06:04:54;;;;;;;;;;;;;;;16.93;nan;101734.44;4946996;28;20166;-86
2023/04/16 06:07:19;;;;;;;;;;;;;;;16.95;nan;101737.69;4943329;28;19926;-86
2023/04/16 06:09:45;;;;;;;;;;;;;;;16.93;nan;101742.53;4944060;28;19930;-87
2023/04/16 06:12:10;;;;;;;;;;;;;;;16.94;nan;101735.25;4941040;28;19918;-87
2023/04/16 06:14:36;;;;;;;;;;;;;;;16.92;nan;101746.34;4940987;28;19918;-87
2023/04/16 06:17:01;;;;;;;;;;;;;;;16.92;nan;101749.03;4941985;28;20034;-87
2023/04/16 06:19:26;;;;;;;;;;;;;;;16.94;nan;101748.78;4938535;28;20013;-88
2023/04/16 06:21:52;;;;;;;;;;;;;;;16.93;nan;101756.06;4940798;28;20029;-87
2023/04/16 06:24:18;;;;;;;;;;;;;;;16.93;nan;101753.38;4940896;28;19923;-87
2023/04/16 06:26:43;;;;;;;;;;;;;;;16.92;nan;101757.97;4955532;28;19919;-87
2023/04/16 06:29:08;;;;;;;;;;;;;;;16.94;nan;101762.31;4940418;28;20371;-87
2023/04/16 06:31:34;;;;;;;;;;;;;;;16.96;nan;101760.16;4940510;28;20450;-87
2023/04/16 06:34:21;;;;;;;;;;;;;;;16.98;nan;101761.50;4943612;28;20348;-87
2023/04/16 06:40:09;;;;;;;;;;;;;;;17.00;nan;101755.81;4942942;28;20002;-87
2023/04/16 06:42:35;;;;;;;;;;;;;;;17.03;nan;101769.63;4941651;28;20246;-87
2023/04/16 06:45:00;;;;;;;;;;;;;;;17.03;nan;101772.34;4942455;28;19923;-87
2023/04/16 06:47:26;;;;;;;;;;;;;;;17.04;nan;101773.16;4941980;28;20029;-88
2023/04/16 06:49:51;;;;;;;;;;;;;;;17.03;nan;101764.22;4943352;28;19926;-86
2023/04/16 06:52:16;;;;;;;;;;;;;;;17.03;nan;101774.22;4940498;28;19923;-87
2023/04/16 06:54:42;;;;;;;;;;;;;;;17.05;nan;101772.06;4955013;28;19922;-86
2023/04/16 06:57:07;;;;;;;;;;;;;;;17.04;nan;101773.16;4945013;28;19922;-87
2023/04/16 06:59:35;;;;;;;;;;;;;;;17.02;nan;101780.72;4941923;28;19966;-87
2023/04/16 07:02:03;;;;;;;;;;;;;;;17.00;nan;101778.28;4944283;28;19918;-87
2023/04/16 07:04:28;;;;;;;;;;;;;;;17.01;nan;101779.09;4939159;28;19970;-87
2023/04/16 07:06:53;;;;;;;;;;;;;;;17.03;nan;101775.03;4939912;28;20655;-86
2023/04/16 07:09:19;;;;;;;;;;;;;;;17.06;nan;101777.25;4943097;28;20360;-87
2023/04/16 07:11:44;;;;;;;;;;;;;;;17.08;nan;101777.78;4939387;28;19922;-87
2023/04/16 07:14:10;;;;;;;;;;;;;;;17.12;nan;101780.78;4936808;28;19929;-86
2023/04/16 07:16:36;;;;;;;;;;;;;;;17.14;nan;101784.84;4938186;28;19919;-87
2023/04/16 07:19:02;;;;;;;;;;;;;;;17.15;nan;101781.03;4939883;28;20009;-86
2023/04/16 07:21:27;;;;;;;;;;;;;;;17.16;nan;101787.28;4941278;28;20375;-86
2023/04/16 07:23:52;;;;;;;;;;;;;;;17.18;nan;101796.75;4940146;28;19926;-87
2023/04/16 07:26:18;;;;;;;;;;;;;;;17.21;nan;101790.81;4939300;28;19981;-86
2023/04/16 07:28:43;;;;;;;;;;;;;;;17.27;nan;101805.19;4954486;28;19922;-88
2023/04/16 07:31:08;;;;;;;;;;;;;;;17.32;nan;101801.69;4945189;28;20407;-86
2023/04/16 07:33:36;;;;;;;;;;;;;;;17.33;nan;101796.00;4947677;29;20384;-86
2023/04/16 07:36:01;;;;;;;;;;;;;;;17.38;nan;101792.47;4946884;28;20415;-86
2023/04/16 07:38:27;;;;;;;;;;;;;;;17.43;nan;101797.91;4943917;28;21313;-86
2023/04/16 07:40:53;;;;;;;;;;;;;;;17.45;nan;101793.03;4945010;28;20411;-86
2023/04/16 07:43:19;;;;;;;;;;;;;;;17.49;nan;101802.25;4946014;28;20418;-86
2023/04/16 07:45:44;;;;;;;;;;;;;;;17.49;nan;101803.06;4944660;28;20009;-87
2023/04/16 07:48:10;;;;;;;;;;;;;;;17.49;nan;101800.34;4942985;28;19962;-87
2023/04/16 07:50:35;;;;;;;;;;;;;;;17.53;nan;101811.47;4942438;28;19929;-87
2023/04/16 07:53:00;;;;;;;;;;;;;;;17.58;nan;101808.75;4943970;28;19918;-86
2023/04/16 07:55:26;;;;;;;;;;;;;;;17.60;nan;101806.63;4946265;28;20047;-86
2023/04/16 07:57:51;;;;;;;;;;;;;;;17.62;nan;101815.28;4945704;28;20431;-87
2023/04/16 08:00:17;;;;;;;;;;;;;;;17.64;nan;101815.84;4942186;28;19958;-87
2023/04/16 08:02:42;;;;;;;;;;;;;;;17.64;nan;101818.53;4941186;28;20162;-86
2023/04/16 08:05:08;;;;;;;;;;;;;;;17.66;nan;101819.06;4946095;28;20013;-88
2023/04/16 08:07:33;;;;;;;;;;;;;;;17.68;nan;101816.94;4943751;28;20205;-86
2023/04/16 08:09:59;;;;;;;;;;;;;;;17.66;nan;101813.66;4948041;28;19972;-86
2023/04/16 08:12:24;;;;;;;;;;;;;;;17.66;nan;101823.69;4944629;28;20519;-86
2023/04/16 08:14:50;;;;;;;;;;;;;;;17.68;nan;101829.69;4945577;29;19918;-86
2023/04/16 08:17:15;;;;;;;;;;;;;;;17.67;nan;101833.44;4946439;28;20584;-86
2023/04/16 08:19:41;;;;;;;;;;;;;;;17.69;nan;101837.53;4940957;28;19922;-86
2023/04/16 08:22:06;;;;;;;;;;;;;;;17.76;nan;101839.97;4943125;28;19926;-86
2023/04/16 08:24:32;;;;;;;;;;;;;;;17.86;nan;101836.47;4944126;28;20300;-87
2023/04/16 08:26:57;;;;;;;;;;;;;;;17.95;nan;101832.13;4945132;28;20005;-87
2023/04/16 08:29:25;;;;;;;;;;;;;;;18.08;nan;101832.41;4944048;28;19923;-86
2023/04/16 08:31:51;;;;;;;;;;;;;;;18.19;nan;101838.66;4944282;28;19926;-87
2023/04/16 08:34:17;;;;;;;;;;;;;;;18.25;nan;101845.69;4946938;29;19922;-86
2023/04/16 08:36:42;;;;;;;;;;;;;;;18.30;nan;101840.25;4942303;28;19926;-86
2023/04/16 08:39:08;;;;;;;;;;;;;;;18.34;nan;101844.06;4944241;28;19932;-86
2023/04/16 08:41:35;;;;;;;;;;;;;;;18.36;nan;101850.03;4946426;28;19927;-87
2023/04/16 08:44:05;;;;;;;;;;;;;;;18.33;nan;101855.19;4957712;28;20442;-85
2023/04/16 08:46:35;;;;;;;;;;;;;;;18.28;nan;101857.88;4945293;28;20051;-86
2023/04/16 08:49:01;;;;;;;;;;;;;;;18.25;nan;101859.25;4947656;28;20021;-86
2023/04/16 08:51:28;;;;;;;;;;;;;;;18.23;nan;101864.13;4945067;28;20025;-87
2023/04/16 08:53:59;;;;;;;;;;;;;;;18.23;nan;101863.31;4945666;28;19957;-86
2023/04/16 08:56:25;;;;;;;;;;;;;;;18.20;nan;101866.59;4946467;29;20009;-86
2023/04/16 08:58:53;;;;;;;;;;;;;;;18.19;nan;101859.53;4943368;28;20025;-87
2023/04/16 09:01:19;;;;;;;;;;;;;;;18.20;nan;101867.41;4942779;28;19926;-87
2023/04/16 09:03:48;;;;;;;;;;;;;;;18.21;nan;101869.03;4949923;28;19933;-84
2023/04/16 09:06:14;;;;;;;;;;;;;;;18.21;nan;101865.50;4947068;28;19953;-84
2023/04/16 09:08:40;;;;;;;;;;;;;;;18.21;nan;101862.78;4947000;28;19927;-84
2023/04/16 09:11:05;;;;;;;;;;;;;;;18.21;nan;101869.03;4947706;28;20473;-84
2023/04/16 09:13:31;;;;;;;;;;;;;;;18.20;nan;101878.25;4949866;28;20059;-84
2023/04/16 09:15:56;;;;;;;;;;;;;;;18.18;nan;101874.19;4947910;28;19996;-84
2023/04/16 09:18:22;;;;;;;;;;;;;;;18.21;nan;101879.88;4946805;28;20076;-85
2023/04/16 09:20:48;;;;;;;;;;;;;;;18.25;nan;101874.72;4945804;28;19922;-84
2023/04/16 09:23:14;;;;;;;;;;;;;;;18.27;nan;101883.38;4950771;28;19973;-85
2023/04/16 09:25:39;;;;;;;;;;;;;;;18.27;nan;101889.63;4949574;28;20649;-84
2023/04/16 09:28:05;;;;;;;;;;;;;;;18.25;nan;101880.94;4949663;28;19922;-84
2023/04/16 09:30:30;;;;;;;;;;;;;;;18.24;nan;101884.75;4949826;28;19924;-84
2023/04/16 09:33:16;;;;;;;;;;;;;;;18.23;nan;101887.72;4950409;28;20022;-85
2023/04/16 09:35:46;;;;;;;;;;;;;;;18.24;nan;101878.50;4948508;28;19933;-84
2023/04/16 09:38:12;;;;;;;;;;;;;;;18.24;nan;101884.75;4951533;29;20407;-85
2023/04/16 09:40:38;;;;;;;;;;;;;;;18.25;nan;101891.81;4950278;28;19918;-84
2023/04/16 09:43:13;;;;;;;;;;;;;;;18.25;nan;101891.81;4949820;28;19958;-84
2023/04/16 09:45:52;;;;;;;;;;;;;;;18.24;nan;101890.19;4948749;28;19922;-84
2023/04/16 09:48:37;;;;;;;;;;;;;;;18.22;nan;101894.25;4949993;29;19918;-84
2023/04/16 09:51:05;;;;;;;;;;;;;;;18.21;nan;101889.91;4948684;28;19919;-84
2023/04/16 09:53:30;;;;;;;;;;;;;;;18.21;nan;101896.16;4949850;28;20009;-84
2023/04/16 09:55:56;;;;;;;;;;;;;;;18.21;nan;101900.75;4949552;28;20034;-84
2023/04/16 09:58:23;;;;;;;;;;;;;;;18.21;nan;101901.56;4950201;28;19929;-84
2023/04/16 10:00:51;;;;;;;;;;;;;;;18.22;nan;101902.38;4947349;28;19918;-85
2023/04/16 10:03:16;;;;;;;;;;;;;;;18.21;nan;101903.47;4948056;28;20138;-84
2023/04/16 10:05:42;;;;;;;;;;;;;;;18.20;nan;101915.41;4949716;28;20345;-84
2023/04/16 10:08:11;;;;;;;;;;;;;;;18.20;nan;101912.69;4953512;28;19923;-85
2023/04/16 10:10:37;;;;;;;;;;;;;;;18.21;nan;101914.31;4963309;28;19918;-84
2023/04/16 10:13:02;;;;;;;;;;;;;;;18.23;nan;101912.16;4950523;28;19957;-84
2023/04/16 10:15:28;;;;;;;;;;;;;;;18.24;nan;101911.88;4950897;28;20452;-85
2023/04/16 10:17:54;;;;;;;;;;;;;;;18.25;nan;101918.13;4950608;28;19918;-84
2023/04/16 10:20:20;;;;;;;;;;;;;;;18.26;nan;101915.13;4947486;28;19922;-84
2023/04/16 10:22:45;;;;;;;;;;;;;;;18.29;nan;101913.75;4949042;28;19968;-85
2023/04/16 10:25:11;;;;;;;;;;;;;;;18.30;nan;101916.22;4950212;28;19918;-84
2023/04/16 10:27:37;;;;;;;;;;;;;;;18.31;nan;101923.28;4949423;28;19925;-84
2023/04/16 10:30:02;;;;;;;;;;;;;;;18.27;nan;101924.06;4949988;28;19970;-84
2023/04/16 10:32:30;;;;;;;;;;;;;;;18.23;nan;101928.44;4952278;28;19919;-84
2023/04/16 10:34:55;;;;;;;;;;;;;;;18.20;nan;101927.06;4949375;28;19949;-85
2023/04/16 10:37:28;;;;;;;;;;;;;;;18.18;nan;101934.66;4951947;29;19922;-84
2023/04/16 10:39:53;;;;;;;;;;;;;;;18.18;nan;101931.97;4949020;28;19918;-85
2023/04/16 10:42:19;;;;;;;;;;;;;;;18.16;nan;101939.56;4949148;28;20348;-84
2023/04/16 10:44:44;;;;;;;;;;;;;;;18.16;nan;101936.03;4950993;28;19943;-84
2023/04/16 10:47:11;;;;;;;;;;;;;;;18.16;nan;101944.16;4950617;28;20495;-84
2023/04/16 10:49:36;;;;;;;;;;;;;;;18.18;nan;101937.38;4948743;29;19925;-84
2023/04/16 10:52:10;;;;;;;;;;;;;;;18.21;nan;101939.53;4950603;28;19922;-84
2023/04/16 10:54:35;;;;;;;;;;;;;;;18.26;nan;101944.16;4962034;28;19918;-84
2023/04/16 10:57:05;;;;;;;;;;;;;;;18.29;nan;101947.13;4949338;28;20005;-84
2023/04/16 10:59:33;;;;;;;;;;;;;;;18.30;nan;101946.06;4947033;28;20009;-85
2023/04/16 11:02:02;;;;;;;;;;;;;;;18.30;nan;101942.53;4949400;28;19983;-84
2023/04/16 11:04:29;;;;;;;;;;;;;;;18.29;nan;101949.03;4947547;28;20356;-85
2023/04/16 11:07:05;;;;;;;;;;;;;;;18.28;nan;101948.22;4952407;28;19926;-85
2023/04/16 11:09:46;;;;;;;;;;;;;;;18.26;nan;101953.09;4953443;28;19918;-84
2023/04/16 11:12:12;;;;;;;;;;;;;;;18.21;nan;101958.53;4954869;28;19925;-84
2023/04/16 11:14:39;;;;;;;;;;;;;;;18.16;nan;101961.25;4957835;28;19926;-84
2023/04/16 11:17:04;;;;;;;;;;;;;;;18.13;nan;101964.47;4959560;28;20040;-84
2023/04/16 11:19:30;;;;;;;;;;;;;;;18.13;nan;101959.06;4958997;29;19961;-85
2023/04/16 11:21:55;;;;;;;;;;;;;;;18.14;nan;101966.13;4958227;29;20432;-85
2023/04/16 11:24:20;;;;;;;;;;;;;;;18.14;nan;101971.56;4958243;28;19918;-84
2023/04/16 11:26:50;;;;;;;;;;;;;;;18.12;nan;101976.41;4959329;28;19925;-84
2023/04/16 11:29:15;;;;;;;;;;;;;;;18.06;nan;101969.38;4959690;29;19923;-84
2023/04/16 11:31:41;;;;;;;;;;;;;;;18.03;nan;101965.28;4959098;28;19933;-85
2023/04/16 11:34:07;;;;;;;;;;;;;;;18.07;nan;101973.69;4958723;28;20582;-85
2023/04/16 11:36:42;;;;;;;;;;;;;;;18.07;nan;101970.97;4958858;28;19966;-84
2023/04/16 11:39:08;;;;;;;;;;;;;;;18.12;nan;101979.13;4973436;28;19933;-84
2023/04/16 11:41:33;;;;;;;;;;;;;;;18.19;nan;101974.28;4959503;28;19922;-85
2023/04/16 11:43:59;;;;;;;;;;;;;;;18.27;nan;101973.72;4959764;28;20381;-85
2023/04/16 11:46:36;;;;;;;;;;;;;;;18.36;nan;101985.69;4960974;28;20315;-85
2023/04/16 11:49:01;;;;;;;;;;;;;;;18.40;nan;101970.50;4959726;29;20525;-84
2023/04/16 11:51:27;;;;;;;;;;;;;;;18.43;nan;101972.66;4958293;28;19929;-85
2023/04/16 11:53:53;;;;;;;;;;;;;;;18.48;nan;101979.97;4958176;28;19925;-84
2023/04/16 11:56:28;;;;;;;;;;;;;;;18.52;nan;101981.09;4959789;28;19923;-85
2023/04/16 11:59:10;;;;;;;;;;;;;;;18.50;nan;101985.16;4957645;28;19922;-84
2023/04/16 12:01:36;;;;;;;;;;;;;;;18.48;nan;101977.25;4955677;28;19929;-84
2023/04/16 12:04:02;;;;;;;;;;;;;;;18.51;nan;101992.22;4954068;28;19918;-84
2023/04/16 12:06:27;;;;;;;;;;;;;;;18.51;nan;101987.59;4956108;28;19926;-85
2023/04/16 12:08:53;;;;;;;;;;;;;;;18.52;nan;101985.69;4956606;28;19962;-84
2023/04/16 12:11:18;;;;;;;;;;;;;;;18.54;nan;101987.06;4954949;28;19923;-85
2023/04/16 12:14:03;;;;;;;;;;;;;;;18.52;nan;101988.41;4953536;28;20387;-84
2023/04/16 12:16:28;;;;;;;;;;;;;;;18.46;nan;101995.72;4957887;28;19918;-84
2023/04/16 12:19:02;;;;;;;;;;;;;;;18.45;nan;101993.28;4955153;28;19922;-84
2023/04/16 12:21:37;;;;;;;;;;;;;;;18.45;nan;101990.56;4957862;28;19974;-85
2023/04/16 12:24:04;;;;;;;;;;;;;;;18.45;nan;101991.38;4956897;28;19926;-84
2023/04/16 12:26:55;;;;;;;;;;;;;;;18.46;nan;102001.16;4957343;29;19918;-84
2023/04/16 12:29:22;;;;;;;;;;;;;;;18.49;nan;101999.78;4956982;29;20467;-84
2023/04/16 12:31:48;;;;;;;;;;;;;;;18.46;nan;102003.03;4957109;28;19961;-84
2023/04/16 12:34:14;;;;;;;;;;;;;;;18.45;nan;102001.41;4955664;28;19918;-84
2023/04/16 12:36:40;;;;;;;;;;;;;;;18.39;nan;102001.44;4956815;28;20191;-85
2023/04/16 12:39:06;;;;;;;;;;;;;;;18.37;nan;102003.59;4957146;28;19930;-85
2023/04/16 12:41:31;;;;;;;;;;;;;;;18.35;nan;102005.75;4971305;28;19922;-85
2023/04/16 12:44:08;;;;;;;;;;;;;;;18.35;nan;102004.94;4956945;28;19946;-85
2023/04/16 12:46:34;;;;;;;;;;;;;;;18.32;nan;102005.50;4958220;28;19918;-85
2023/04/16 12:48:59;;;;;;;;;;;;;;;18.33;nan;102002.50;4958153;28;19918;-85
2023/04/16 12:51:25;;;;;;;;;;;;;;;18.34;nan;102001.44;4957848;28;20309;-85
2023/04/16 12:53:51;;;;;;;;;;;;;;;18.34;nan;102006.03;4957548;28;20293;-85
2023/04/16 12:56:16;;;;;;;;;;;;;;;18.30;nan;102003.03;4958303;28;19922;-85
2023/04/16 12:58:41;;;;;;;;;;;;;;;18.29;nan;102006.00;4957298;28;19922;-85